Time;durP1;ratioP1;P1;durP2;ratioP2;P2;SDS_P1;SDS_P2;PMS_P1;PMS_P2;Temp;Humidity;BMP_temperature;BMP_pressure;BME280_temperature;BME280_humidity;BME280_pressure;Samples;Min_cycle;Max_cycle;Signal;HPM_P1;HPM_P2
2022/03/30 00:00:40;;;;;;;25.38;13.65;;;;;;;;;;5073966;28;20123;-25
2022/03/30 00:03:06;;;;;;;24.35;12.85;;;;;;;;;;5073794;28;20129;-29
2022/03/30 00:05:32;;;;;;;28.13;14.10;;;;;;;;;;5073443;28;20041;-29
2022/03/30 00:07:58;;;;;;;23.70;13.30;;;;;;;;;;5073562;28;20075;-28
2022/03/30 00:10:24;;;;;;;22.65;13.05;;;;;;;;;;5073220;28;20086;-28
2022/03/30 00:12:51;;;;;;;27.38;13.50;;;;;;;;;;5073206;28;20115;-28
2022/03/30 00:15:17;;;;;;;26.52;12.93;;;;;;;;;;5055337;28;20037;-28
2022/03/30 00:17:44;;;;;;;25.38;13.20;;;;;;;;;;5073437;28;20421;-27
2022/03/30 00:20:11;;;;;;;22.35;13.38;;;;;;;;;;5055582;28;20055;-30
2022/03/30 00:22:38;;;;;;;24.40;13.02;;;;;;;;;;5073200;28;20098;-28
2022/03/30 00:25:05;;;;;;;26.05;13.90;;;;;;;;;;5073003;28;20071;-27
2022/03/30 00:27:31;;;;;;;22.38;12.90;;;;;;;;;;5073544;28;20048;-28
2022/03/30 00:29:57;;;;;;;27.13;13.52;;;;;;;;;;5073467;28;20679;-32
2022/03/30 00:32:23;;;;;;;20.92;11.57;;;;;;;;;;5072340;28;20193;-28
2022/03/30 00:34:49;;;;;;;25.20;13.77;;;;;;;;;;5073220;28;20350;-28
2022/03/30 00:37:15;;;;;;;22.02;13.10;;;;;;;;;;5072879;28;20063;-30
2022/03/30 00:39:43;;;;;;;25.60;14.07;;;;;;;;;;5073199;28;20048;-28
2022/03/30 00:42:16;;;;;;;27.58;14.80;;;;;;;;;;5072527;28;20052;-30
2022/03/30 00:44:42;;;;;;;30.02;15.10;;;;;;;;;;5072663;28;20044;-31
2022/03/30 00:47:15;;;;;;;24.13;15.27;;;;;;;;;;5072455;28;20040;-34
2022/03/30 00:49:41;;;;;;;25.10;13.23;;;;;;;;;;5072871;28;20048;-34
2022/03/30 00:52:07;;;;;;;24.35;13.07;;;;;;;;;;5072275;28;20033;-32
2022/03/30 00:54:34;;;;;;;26.48;14.30;;;;;;;;;;5072896;28;20043;-31
2022/03/30 00:57:00;;;;;;;26.15;15.27;;;;;;;;;;5072240;28;20501;-31
2022/03/30 00:59:26;;;;;;;22.90;14.02;;;;;;;;;;5068833;28;20514;-32
2022/03/30 01:01:52;;;;;;;29.10;15.10;;;;;;;;;;5070468;28;20394;-34
2022/03/30 01:04:18;;;;;;;24.20;13.85;;;;;;;;;;5072375;28;20086;-31
2022/03/30 01:06:45;;;;;;;33.58;15.95;;;;;;;;;;5072419;28;20048;-31
2022/03/30 01:09:11;;;;;;;25.45;14.80;;;;;;;;;;5072084;28;20383;-29
2022/03/30 01:11:37;;;;;;;28.50;15.20;;;;;;;;;;5071958;28;20040;-32
2022/03/30 01:14:03;;;;;;;32.05;16.08;;;;;;;;;;5071706;28;20414;-33
2022/03/30 01:16:29;;;;;;;26.52;15.27;;;;;;;;;;5071852;28;20040;-30
2022/03/30 01:19:06;;;;;;;28.30;15.73;;;;;;;;;;5072144;28;20039;-30
2022/03/30 01:21:32;;;;;;;25.80;14.70;;;;;;;;;;5071873;28;20051;-31
2022/03/30 01:23:58;;;;;;;25.08;15.18;;;;;;;;;;5071901;28;20041;-29
2022/03/30 01:26:25;;;;;;;29.77;15.95;;;;;;;;;;5071784;28;20043;-31
2022/03/30 01:28:51;;;;;;;26.55;14.75;;;;;;;;;;5072008;28;20115;-31
2022/03/30 01:34:03;;;;;;;25.63;15.32;;;;;;;;;;5072021;28;20036;-34
2022/03/30 01:36:29;;;;;;;26.90;15.63;;;;;;;;;;5072272;28;20071;-31
2022/03/30 01:38:55;;;;;;;28.10;16.88;;;;;;;;;;5071907;28;20040;-29
2022/03/30 01:41:21;;;;;;;27.65;14.88;;;;;;;;;;5072581;28;20063;-25
2022/03/30 01:43:47;;;;;;;27.92;15.80;;;;;;;;;;5072330;28;20044;-26
2022/03/30 01:46:13;;;;;;;25.30;14.73;;;;;;;;;;5071832;28;20048;-26
2022/03/30 01:48:40;;;;;;;27.27;15.48;;;;;;;;;;5072116;28;20036;-28
2022/03/30 01:51:06;;;;;;;26.60;15.07;;;;;;;;;;5071699;28;20076;-26
2022/03/30 01:53:32;;;;;;;28.13;17.58;;;;;;;;;;5071979;28;20394;-26
2022/03/30 01:55:58;;;;;;;25.73;14.57;;;;;;;;;;5072068;28;20402;-26
2022/03/30 01:58:24;;;;;;;28.33;16.13;;;;;;;;;;5072355;28;20398;-25
2022/03/30 02:00:51;;;;;;;29.35;15.98;;;;;;;;;;5072008;28;20133;-25
2022/03/30 02:03:18;;;;;;;34.10;17.00;;;;;;;;;;5072160;28;20129;-25
2022/03/30 02:05:44;;;;;;;32.95;18.75;;;;;;;;;;5071981;28;20044;-26
2022/03/30 02:08:10;;;;;;;35.25;17.70;;;;;;;;;;5071794;28;20123;-26
2022/03/30 02:10:38;;;;;;;33.90;18.15;;;;;;;;;;5071775;28;20044;-26
2022/03/30 02:13:05;;;;;;;34.85;17.85;;;;;;;;;;5071722;28;20486;-26
2022/03/30 02:15:31;;;;;;;34.03;19.63;;;;;;;;;;5071943;28;20037;-26
2022/03/30 02:17:59;;;;;;;36.50;17.80;;;;;;;;;;5071512;28;20044;-31
2022/03/30 02:20:25;;;;;;;34.03;17.60;;;;;;;;;;5071555;28;20048;-26
2022/03/30 02:22:51;;;;;;;36.20;17.77;;;;;;;;;;5070740;28;20048;-31
2022/03/30 02:25:17;;;;;;;29.23;17.45;;;;;;;;;;5071027;28;20045;-30
2022/03/30 02:27:43;;;;;;;28.65;16.40;;;;;;;;;;5071068;28;20079;-31
2022/03/30 02:30:09;;;;;;;29.60;17.35;;;;;;;;;;5070486;28;20036;-30
2022/03/30 02:32:36;;;;;;;26.88;15.02;;;;;;;;;;5070722;28;20041;-31
2022/03/30 02:35:05;;;;;;;30.70;17.02;;;;;;;;;;5070941;28;20120;-30
2022/03/30 02:37:32;;;;;;;30.40;17.10;;;;;;;;;;5071384;28;20044;-31
2022/03/30 02:39:58;;;;;;;31.60;17.10;;;;;;;;;;5070842;28;20036;-32
2022/03/30 02:42:24;;;;;;;28.70;16.70;;;;;;;;;;5070828;28;20406;-32
2022/03/30 02:44:50;;;;;;;31.42;16.55;;;;;;;;;;5071048;28;20068;-30
2022/03/30 02:47:16;;;;;;;28.02;18.05;;;;;;;;;;5070706;28;20044;-31
2022/03/30 02:49:42;;;;;;;33.10;17.88;;;;;;;;;;5070740;28;20042;-30
2022/03/30 02:52:08;;;;;;;38.88;18.83;;;;;;;;;;5063442;28;20098;-30
2022/03/30 02:54:34;;;;;;;29.63;17.95;;;;;;;;;;5066935;28;20036;-31
2022/03/30 02:57:01;;;;;;;33.63;18.10;;;;;;;;;;5071273;28;20083;-30
2022/03/30 02:59:27;;;;;;;31.80;17.90;;;;;;;;;;5070764;28;20391;-30
2022/03/30 03:01:54;;;;;;;31.10;17.90;;;;;;;;;;5070391;28;20101;-32
2022/03/30 03:04:21;;;;;;;33.08;18.05;;;;;;;;;;5070588;28;20047;-30
2022/03/30 03:06:47;;;;;;;33.38;18.15;;;;;;;;;;5070835;28;20464;-31
2022/03/30 03:09:13;;;;;;;33.70;19.58;;;;;;;;;;5070708;28;20563;-31
2022/03/30 03:11:39;;;;;;;35.50;19.30;;;;;;;;;;5070050;28;20043;-32
2022/03/30 03:14:07;;;;;;;35.03;19.80;;;;;;;;;;5070414;28;20075;-32
2022/03/30 03:16:34;;;;;;;29.08;18.38;;;;;;;;;;5070415;28;20049;-30
2022/03/30 03:19:00;;;;;;;33.55;18.88;;;;;;;;;;5070263;28;20129;-32
2022/03/30 03:21:26;;;;;;;34.60;17.85;;;;;;;;;;5070311;28;20064;-32
2022/03/30 03:23:53;;;;;;;33.10;17.50;;;;;;;;;;5074061;28;20465;-30
2022/03/30 03:26:19;;;;;;;30.52;17.67;;;;;;;;;;5074169;28;20052;-31
2022/03/30 03:28:45;;;;;;;29.83;18.20;;;;;;;;;;5073771;28;20078;-34
2022/03/30 03:31:11;;;;;;;27.42;17.85;;;;;;;;;;5073925;28;20098;-32
2022/03/30 03:33:37;;;;;;;31.60;17.55;;;;;;;;;;5073526;28;20043;-32
2022/03/30 03:36:04;;;;;;;29.10;17.52;;;;;;;;;;5074030;28;20074;-32
2022/03/30 03:38:30;;;;;;;29.27;17.85;;;;;;;;;;5073935;28;20049;-31
2022/03/30 03:40:56;;;;;;;31.42;17.38;;;;;;;;;;5073810;28;20052;-32
2022/03/30 03:43:22;;;;;;;31.33;17.77;;;;;;;;;;5073706;28;20090;-31
2022/03/30 03:45:49;;;;;;;30.85;17.75;;;;;;;;;;5073527;28;20140;-30
2022/03/30 03:48:15;;;;;;;34.45;17.50;;;;;;;;;;5073535;28;20036;-32
2022/03/30 03:50:42;;;;;;;32.75;19.42;;;;;;;;;;5073848;28;20202;-31
2022/03/30 03:53:08;;;;;;;30.55;17.15;;;;;;;;;;5073382;28;20040;-30
2022/03/30 03:55:36;;;;;;;32.10;17.35;;;;;;;;;;5073508;28;20122;-31
2022/03/30 03:58:02;;;;;;;30.92;16.23;;;;;;;;;;5073672;28;20075;-30
2022/03/30 04:00:28;;;;;;;34.55;18.00;;;;;;;;;;5073183;28;20173;-31
2022/03/30 04:02:54;;;;;;;31.77;17.92;;;;;;;;;;5072832;28;20119;-33
2022/03/30 04:05:20;;;;;;;30.00;17.38;;;;;;;;;;5073341;28;20045;-31
2022/03/30 04:07:46;;;;;;;33.10;17.50;;;;;;;;;;5073698;28;20494;-31
2022/03/30 04:10:15;;;;;;;33.55;18.70;;;;;;;;;;5073403;28;20068;-30
2022/03/30 04:12:41;;;;;;;32.83;18.65;;;;;;;;;;5072872;28;20037;-31
2022/03/30 04:15:08;;;;;;;34.83;17.50;;;;;;;;;;5072849;28;20037;-31
2022/03/30 04:17:34;;;;;;;30.85;17.70;;;;;;;;;;5073593;28;20083;-32
2022/03/30 04:20:01;;;;;;;31.92;17.48;;;;;;;;;;5073000;28;20107;-32
2022/03/30 04:22:27;;;;;;;34.35;17.15;;;;;;;;;;5072602;28;20068;-30
2022/03/30 04:24:53;;;;;;;32.08;16.65;;;;;;;;;;5073078;28;20040;-32
2022/03/30 04:27:19;;;;;;;32.45;18.05;;;;;;;;;;5072520;28;20095;-30
2022/03/30 04:29:46;;;;;;;27.92;16.70;;;;;;;;;;5072754;28;20044;-30
2022/03/30 04:32:12;;;;;;;32.00;17.63;;;;;;;;;;5072477;28;20052;-30
2022/03/30 04:34:38;;;;;;;30.20;16.80;;;;;;;;;;5055754;28;20094;-31
2022/03/30 04:37:04;;;;;;;27.15;17.48;;;;;;;;;;5063063;28;20119;-29
2022/03/30 04:39:30;;;;;;;34.35;18.08;;;;;;;;;;5061996;28;20044;-30
2022/03/30 04:41:56;;;;;;;32.60;18.30;;;;;;;;;;5063413;28;20097;-29
2022/03/30 04:44:25;;;;;;;33.45;17.50;;;;;;;;;;5065436;28;20041;-31
2022/03/30 04:46:51;;;;;;;32.38;18.65;;;;;;;;;;5067651;28;20048;-29
2022/03/30 04:49:17;;;;;;;31.63;18.13;;;;;;;;;;5072216;28;20123;-28
2022/03/30 04:51:44;;;;;;;35.38;18.25;;;;;;;;;;5069276;28;20044;-28
2022/03/30 04:54:10;;;;;;;32.70;17.65;;;;;;;;;;5071342;28;20041;-30
2022/03/30 04:56:36;;;;;;;33.75;19.10;;;;;;;;;;5072635;28;20050;-30
2022/03/30 04:59:02;;;;;;;36.75;19.55;;;;;;;;;;5072147;28;20079;-30
2022/03/30 05:01:29;;;;;;;32.97;19.00;;;;;;;;;;5060171;28;20047;-29
2022/03/30 05:03:55;;;;;;;38.10;18.38;;;;;;;;;;5067472;28;20068;-31
2022/03/30 05:06:21;;;;;;;36.55;20.05;;;;;;;;;;5072225;28;20047;-30
2022/03/30 05:08:47;;;;;;;36.72;19.58;;;;;;;;;;5072302;28;20036;-31
2022/03/30 05:11:13;;;;;;;34.70;18.95;;;;;;;;;;5066414;28;20033;-30
2022/03/30 05:13:40;;;;;;;40.10;20.13;;;;;;;;;;5067780;28;20067;-30
2022/03/30 05:16:06;;;;;;;36.33;19.35;;;;;;;;;;5060737;28;20040;-30
2022/03/30 05:18:32;;;;;;;37.92;19.30;;;;;;;;;;5060634;28;20083;-30
2022/03/30 05:20:58;;;;;;;33.95;19.00;;;;;;;;;;5064875;28;21085;-30
2022/03/30 05:23:24;;;;;;;36.42;20.00;;;;;;;;;;5028997;28;20075;-29
2022/03/30 05:25:50;;;;;;;32.70;17.55;;;;;;;;;;5059624;28;20052;-29
2022/03/30 05:28:16;;;;;;;36.63;17.75;;;;;;;;;;5058789;28;20045;-30
2022/03/30 05:30:42;;;;;;;36.03;17.38;;;;;;;;;;5063602;28;20125;-29
2022/03/30 05:33:08;;;;;;;30.00;17.27;;;;;;;;;;5069834;28;20039;-29
2022/03/30 05:35:34;;;;;;;27.80;16.00;;;;;;;;;;5063813;28;20044;-29
2022/03/30 05:38:00;;;;;;;35.92;18.85;;;;;;;;;;5068110;28;20041;-31
2022/03/30 05:40:27;;;;;;;27.08;17.00;;;;;;;;;;5070009;28;20040;-29
2022/03/30 05:42:53;;;;;;;24.20;15.73;;;;;;;;;;5070261;28;20040;-29
2022/03/30 05:45:19;;;;;;;31.45;16.13;;;;;;;;;;5070161;28;20047;-29
2022/03/30 05:47:45;;;;;;;30.35;16.38;;;;;;;;;;5070925;28;20039;-29
2022/03/30 05:50:11;;;;;;;30.45;16.60;;;;;;;;;;5068638;28;20502;-29
2022/03/30 05:52:37;;;;;;;30.33;16.17;;;;;;;;;;5069701;28;20036;-29
2022/03/30 05:55:03;;;;;;;26.20;14.65;;;;;;;;;;5070242;28;20040;-29
2022/03/30 05:57:30;;;;;;;27.65;14.15;;;;;;;;;;5071005;28;20076;-29
2022/03/30 05:59:58;;;;;;;26.60;12.95;;;;;;;;;;5070643;28;20032;-29
2022/03/30 06:02:24;;;;;;;25.98;13.45;;;;;;;;;;5051635;28;20421;-29
2022/03/30 06:04:50;;;;;;;22.10;13.15;;;;;;;;;;5070063;28;20047;-30
2022/03/30 06:07:17;;;;;;;21.73;12.20;;;;;;;;;;5069920;28;20049;-29
2022/03/30 06:09:43;;;;;;;22.13;10.75;;;;;;;;;;5070413;28;20093;-30
2022/03/30 06:12:09;;;;;;;18.35;11.38;;;;;;;;;;5070644;28;20051;-30
2022/03/30 06:14:35;;;;;;;20.38;10.43;;;;;;;;;;5067116;28;20502;-29
2022/03/30 06:17:05;;;;;;;18.83;11.93;;;;;;;;;;5068882;28;20041;-29
2022/03/30 06:19:33;;;;;;;17.10;10.20;;;;;;;;;;5059176;28;20124;-30
2022/03/30 06:22:01;;;;;;;18.70;9.95;;;;;;;;;;5053565;28;20064;-29
2022/03/30 06:24:27;;;;;;;14.75;8.45;;;;;;;;;;5070514;28;20119;-29
2022/03/30 06:26:53;;;;;;;14.23;8.85;;;;;;;;;;5070630;28;20051;-29
2022/03/30 06:29:19;;;;;;;11.68;7.28;;;;;;;;;;5070279;28;20079;-30
2022/03/30 06:31:45;;;;;;;9.70;6.53;;;;;;;;;;5068890;28;20040;-29
2022/03/30 06:34:11;;;;;;;11.25;6.55;;;;;;;;;;5070572;28;20082;-29
2022/03/30 06:36:38;;;;;;;10.38;6.28;;;;;;;;;;5070967;28;20044;-30
2022/03/30 06:39:05;;;;;;;7.95;5.50;;;;;;;;;;5069797;28;20047;-29
2022/03/30 06:41:31;;;;;;;6.45;4.20;;;;;;;;;;5069449;28;20045;-30
2022/03/30 06:43:57;;;;;;;5.38;4.00;;;;;;;;;;5070194;28;20043;-30
2022/03/30 06:46:23;;;;;;;5.53;4.20;;;;;;;;;;5070548;28;20090;-29
2022/03/30 06:48:49;;;;;;;7.35;4.22;;;;;;;;;;5070412;28;20041;-30
2022/03/30 06:51:15;;;;;;;4.47;3.15;;;;;;;;;;5070134;28;20036;-29
2022/03/30 06:53:42;;;;;;;4.05;3.10;;;;;;;;;;5070048;28;20036;-29
2022/03/30 06:56:09;;;;;;;3.95;2.95;;;;;;;;;;5070446;28;20437;-30
2022/03/30 06:58:35;;;;;;;3.95;2.28;;;;;;;;;;5073826;28;20044;-30
2022/03/30 07:01:01;;;;;;;2.35;2.10;;;;;;;;;;5074416;28;20051;-30
2022/03/30 07:03:28;;;;;;;4.70;2.10;;;;;;;;;;5073979;28;20044;-32
2022/03/30 07:05:54;;;;;;;2.38;2.17;;;;;;;;;;5058346;28;20052;-29
2022/03/30 07:11:05;;;;;;;2.72;2.50;;;;;;;;;;5074542;28;20110;-27
2022/03/30 07:13:31;;;;;;;3.08;2.38;;;;;;;;;;5074525;28;20397;-27
2022/03/30 07:15:57;;;;;;;4.03;2.90;;;;;;;;;;5074461;28;20063;-27
2022/03/30 07:18:23;;;;;;;3.72;3.10;;;;;;;;;;5074423;28;20076;-27
2022/03/30 07:20:49;;;;;;;5.65;3.35;;;;;;;;;;5074264;28;20040;-26
2022/03/30 07:23:16;;;;;;;3.63;3.00;;;;;;;;;;5074087;28;20080;-27
2022/03/30 07:25:42;;;;;;;3.53;3.08;;;;;;;;;;5074113;28;20044;-28
2022/03/30 07:28:08;;;;;;;3.20;3.00;;;;;;;;;;5074409;28;20055;-27
2022/03/30 07:30:36;;;;;;;2.85;2.65;;;;;;;;;;5055940;28;20040;-27
2022/03/30 07:33:02;;;;;;;2.33;1.90;;;;;;;;;;5074413;28;20051;-28
2022/03/30 07:35:29;;;;;;;1.65;1.55;;;;;;;;;;5074252;28;20097;-26
2022/03/30 07:37:56;;;;;;;2.08;1.60;;;;;;;;;;5074116;28;20040;-27
2022/03/30 07:40:24;;;;;;;2.80;1.40;;;;;;;;;;5074117;28;20075;-27
2022/03/30 07:42:51;;;;;;;2.13;1.30;;;;;;;;;;5074319;28;20041;-26
2022/03/30 07:45:17;;;;;;;1.67;1.02;;;;;;;;;;5073562;28;20036;-26
2022/03/30 07:47:43;;;;;;;1.65;1.10;;;;;;;;;;5073948;28;20079;-26
2022/03/30 07:50:11;;;;;;;1.05;1.00;;;;;;;;;;5073754;28;20075;-26
2022/03/30 07:52:38;;;;;;;1.10;1.00;;;;;;;;;;5073725;28;20464;-27
2022/03/30 07:55:05;;;;;;;2.47;1.10;;;;;;;;;;5073901;28;20044;-27
2022/03/30 07:57:31;;;;;;;0.90;0.90;;;;;;;;;;5073897;28;20047;-27
2022/03/30 07:59:58;;;;;;;1.83;1.10;;;;;;;;;;5073739;28;20040;-27
2022/03/30 08:02:25;;;;;;;1.17;1.08;;;;;;;;;;5073400;28;20040;-26
2022/03/30 08:04:51;;;;;;;0.90;0.90;;;;;;;;;;5073764;28;20047;-26
2022/03/30 08:07:18;;;;;;;1.17;1.08;;;;;;;;;;5073176;28;20036;-26
2022/03/30 08:09:44;;;;;;;1.40;0.95;;;;;;;;;;5073795;28;20063;-27
2022/03/30 08:12:11;;;;;;;1.15;1.05;;;;;;;;;;5055683;28;20067;-28
2022/03/30 08:14:37;;;;;;;1.40;1.30;;;;;;;;;;5073851;28;20366;-26
2022/03/30 08:17:03;;;;;;;1.75;1.02;;;;;;;;;;5074455;28;20048;-26
2022/03/30 08:19:29;;;;;;;1.65;1.30;;;;;;;;;;5074640;28;20401;-28
2022/03/30 08:24:41;;;;;;;1.73;1.30;;;;;;;;;;5074149;28;20460;-26
2022/03/30 08:27:07;;;;;;;1.85;1.20;;;;;;;;;;5074011;28;20474;-27
2022/03/30 08:29:33;;;;;;;3.15;1.35;;;;;;;;;;5073911;28;20043;-27
2022/03/30 08:32:00;;;;;;;2.22;1.25;;;;;;;;;;5073705;28;20112;-26
2022/03/30 08:34:26;;;;;;;1.40;1.30;;;;;;;;;;5073570;28;20040;-26
2022/03/30 08:36:52;;;;;;;1.58;1.40;;;;;;;;;;5073184;28;20408;-27
2022/03/30 08:39:18;;;;;;;4.03;1.50;;;;;;;;;;5073242;28;20048;-26
2022/03/30 08:41:45;;;;;;;2.75;1.23;;;;;;;;;;5073508;28;20509;-26
2022/03/30 08:44:14;;;;;;;3.13;1.33;;;;;;;;;;5073475;28;20109;-27
2022/03/30 08:46:41;;;;;;;2.05;1.13;;;;;;;;;;5073104;28;20048;-26
2022/03/30 08:49:08;;;;;;;1.52;1.42;;;;;;;;;;5072913;28;20047;-26
2022/03/30 08:51:37;;;;;;;3.08;1.45;;;;;;;;;;5072708;28;20128;-27
2022/03/30 08:54:04;;;;;;;1.42;1.25;;;;;;;;;;5073136;28;20040;-26
2022/03/30 08:56:30;;;;;;;2.03;1.50;;;;;;;;;;5073129;28;20044;-27
2022/03/30 08:59:07;;;;;;;1.60;1.50;;;;;;;;;;5072893;28;20044;-27
2022/03/30 09:01:34;;;;;;;1.63;1.20;;;;;;;;;;5073029;28;20490;-27
2022/03/30 09:04:00;;;;;;;3.22;1.17;;;;;;;;;;5055182;28;20489;-27
2022/03/30 09:06:41;;;;;;;1.90;1.40;;;;;;;;;;5072897;28;20051;-28
2022/03/30 09:09:07;;;;;;;2.13;1.67;;;;;;;;;;5072554;28;20143;-26
2022/03/30 09:11:40;;;;;;;2.72;1.25;;;;;;;;;;5072824;28;20090;-27
2022/03/30 09:14:07;;;;;;;4.18;1.60;;;;;;;;;;5073084;28;20397;-27
2022/03/30 09:16:37;;;;;;;4.43;1.58;;;;;;;;;;5072958;28;20075;-27
2022/03/30 09:19:04;;;;;;;1.75;1.38;;;;;;;;;;5072605;28;20056;-26
2022/03/30 09:21:40;;;;;;;2.28;1.85;;;;;;;;;;5072326;28;20049;-29
2022/03/30 09:24:06;;;;;;;2.90;1.70;;;;;;;;;;5073116;28;20494;-26
2022/03/30 09:26:33;;;;;;;2.78;1.50;;;;;;;;;;5073312;28;20566;-26
2022/03/30 09:29:00;;;;;;;3.22;2.05;;;;;;;;;;5072500;28;20044;-27
2022/03/30 09:31:26;;;;;;;6.25;2.05;;;;;;;;;;5071114;28;20044;-28
2022/03/30 09:33:53;;;;;;;2.03;1.30;;;;;;;;;;5070696;28;20079;-27
2022/03/30 09:36:33;;;;;;;3.65;1.40;;;;;;;;;;5070594;28;20052;-28
2022/03/30 09:38:59;;;;;;;2.15;1.58;;;;;;;;;;5072117;28;20083;-26
2022/03/30 09:41:25;;;;;;;2.92;1.10;;;;;;;;;;5054946;28;20386;-26
2022/03/30 09:44:04;;;;;;;1.83;1.02;;;;;;;;;;5072660;28;20036;-27
2022/03/30 09:46:30;;;;;;;1.92;1.10;;;;;;;;;;5072259;28;20047;-26
2022/03/30 09:48:56;;;;;;;2.42;1.50;;;;;;;;;;5072159;28;20044;-27
2022/03/30 09:51:27;;;;;;;2.13;1.58;;;;;;;;;;5072417;28;20047;-27
2022/03/30 09:53:53;;;;;;;2.83;1.50;;;;;;;;;;5072249;28;20041;-27
2022/03/30 09:56:21;;;;;;;2.30;1.42;;;;;;;;;;5072179;28;20543;-27
2022/03/30 09:58:47;;;;;;;2.38;1.42;;;;;;;;;;5071877;28;20040;-29
2022/03/30 10:01:16;;;;;;;1.55;1.45;;;;;;;;;;5071811;28;20040;-27
2022/03/30 10:03:44;;;;;;;2.85;1.35;;;;;;;;;;5071724;28;20037;-28
2022/03/30 10:06:15;;;;;;;1.85;1.35;;;;;;;;;;5071763;28;20119;-27
2022/03/30 10:08:42;;;;;;;2.50;1.30;;;;;;;;;;5072067;28;20041;-27
2022/03/30 10:11:10;;;;;;;2.45;1.27;;;;;;;;;;5071803;28;20036;-27
2022/03/30 10:13:37;;;;;;;3.38;1.33;;;;;;;;;;5071639;28;20036;-27
2022/03/30 10:16:05;;;;;;;3.13;1.20;;;;;;;;;;5071595;28;20043;-27
2022/03/30 10:18:32;;;;;;;3.78;1.20;;;;;;;;;;5071490;28;20451;-29
2022/03/30 10:21:19;;;;;;;1.85;1.20;;;;;;;;;;5071034;28;20049;-27
2022/03/30 10:23:54;;;;;;;2.53;1.38;;;;;;;;;;5053644;28;20086;-27
2022/03/30 10:26:38;;;;;;;3.50;1.00;;;;;;;;;;5071437;28;20596;-27
2022/03/30 10:29:09;;;;;;;1.98;1.20;;;;;;;;;;5071157;28;20101;-28
2022/03/30 10:31:35;;;;;;;2.65;1.10;;;;;;;;;;5073403;28;20046;-28
2022/03/30 10:34:34;;;;;;;1.92;1.13;;;;;;;;;;5075132;28;20039;-27
2022/03/30 10:37:07;;;;;;;2.13;1.30;;;;;;;;;;5020296;28;20174;-27
2022/03/30 10:39:33;;;;;;;3.13;1.23;;;;;;;;;;5073054;28;20040;-29
2022/03/30 10:42:05;;;;;;;2.85;1.35;;;;;;;;;;5075374;28;20043;-27
2022/03/30 10:44:41;;;;;;;2.58;1.42;;;;;;;;;;5075052;28;20029;-27
2022/03/30 10:47:11;;;;;;;4.22;1.33;;;;;;;;;;5075343;28;20053;-27
2022/03/30 10:49:56;;;;;;;6.10;1.90;;;;;;;;;;5075227;28;20040;-28
2022/03/30 10:52:41;;;;;;;3.88;1.42;;;;;;;;;;5075371;28;20440;-27
2022/03/30 10:55:13;;;;;;;5.57;1.58;;;;;;;;;;5074886;28;20048;-27
2022/03/30 10:57:50;;;;;;;2.40;1.40;;;;;;;;;;5074711;28;20040;-26
2022/03/30 11:00:22;;;;;;;3.67;1.70;;;;;;;;;;5074895;28;20482;-27
2022/03/30 11:02:48;;;;;;;3.08;1.40;;;;;;;;;;5074885;28;20119;-28
2022/03/30 11:05:16;;;;;;;4.15;1.33;;;;;;;;;;5074387;28;20036;-27
2022/03/30 11:07:42;;;;;;;6.28;1.50;;;;;;;;;;5074652;28;20033;-27
2022/03/30 11:10:17;;;;;;;5.68;1.30;;;;;;;;;;5074660;28;20044;-27
2022/03/30 11:13:05;;;;;;;1.75;1.33;;;;;;;;;;5074629;28;20060;-27
2022/03/30 11:15:32;;;;;;;1.58;1.48;;;;;;;;;;5074911;28;20037;-27
2022/03/30 11:18:30;;;;;;;2.20;1.33;;;;;;;;;;5074483;28;20032;-27
2022/03/30 11:21:11;;;;;;;2.88;1.58;;;;;;;;;;5019245;28;20048;-27
2022/03/30 11:23:38;;;;;;;3.28;1.27;;;;;;;;;;5074577;28;20040;-27
2022/03/30 11:26:04;;;;;;;1.65;1.20;;;;;;;;;;5056195;28;20044;-27
2022/03/30 11:28:35;;;;;;;2.33;1.17;;;;;;;;;;5074473;28;20049;-27
2022/03/30 11:31:04;;;;;;;3.03;1.40;;;;;;;;;;5073911;28;20143;-27
2022/03/30 11:33:33;;;;;;;1.55;1.20;;;;;;;;;;5074481;28;20075;-27
2022/03/30 11:36:02;;;;;;;4.00;1.80;;;;;;;;;;5073987;28;20051;-28
2022/03/30 11:38:37;;;;;;;2.47;1.40;;;;;;;;;;5073960;28;20383;-26
2022/03/30 11:41:08;;;;;;;3.78;1.40;;;;;;;;;;5074316;28;20511;-27
2022/03/30 11:45:12;;;;;;;4.35;1.67;;;;;;;;;;5073280;28;20084;-26
2022/03/30 11:46:28;;;;;;;2.75;1.30;;;;;;;;;;5073483;28;20152;-27
2022/03/30 11:48:59;;;;;;;2.20;1.48;;;;;;;;;;5073383;28;20072;-28
2022/03/30 11:51:26;;;;;;;1.17;1.05;;;;;;;;;;5073942;28;20133;-27
2022/03/30 11:54:09;;;;;;;2.95;1.35;;;;;;;;;;5074385;28;20041;-27
2022/03/30 11:56:35;;;;;;;3.30;1.17;;;;;;;;;;5074664;28;20044;-27
2022/03/30 11:59:01;;;;;;;2.30;1.27;;;;;;;;;;5074064;28;20051;-27
2022/03/30 12:01:27;;;;;;;2.72;1.30;;;;;;;;;;5073670;28;20052;-27
2022/03/30 12:03:55;;;;;;;2.90;1.77;;;;;;;;;;5074200;28;20040;-28
2022/03/30 12:06:21;;;;;;;3.80;1.80;;;;;;;;;;5073791;28;20047;-26
2022/03/30 12:08:48;;;;;;;2.70;1.40;;;;;;;;;;5073671;28;20052;-27
2022/03/30 12:11:15;;;;;;;1.80;1.33;;;;;;;;;;5073676;28;20071;-26
2022/03/30 12:13:41;;;;;;;2.10;1.50;;;;;;;;;;5073677;28;20093;-26
2022/03/30 12:16:09;;;;;;;1.80;1.00;;;;;;;;;;5073536;28;20155;-26
2022/03/30 12:18:49;;;;;;;3.03;1.15;;;;;;;;;;5073748;28;20071;-27
2022/03/30 12:21:18;;;;;;;2.67;1.13;;;;;;;;;;5073490;28;20037;-27
2022/03/30 12:23:50;;;;;;;1.25;0.90;;;;;;;;;;5073837;28;20123;-26
2022/03/30 12:26:16;;;;;;;1.95;1.10;;;;;;;;;;5073437;28;20470;-28
2022/03/30 12:28:42;;;;;;;2.63;1.55;;;;;;;;;;5073105;28;20071;-25
2022/03/30 12:31:10;;;;;;;1.42;1.20;;;;;;;;;;5073112;28;20040;-26
2022/03/30 12:33:43;;;;;;;2.15;0.90;;;;;;;;;;5073185;28;20384;-26
2022/03/30 12:36:20;;;;;;;1.40;0.80;;;;;;;;;;5073134;28;20044;-26
2022/03/30 12:38:47;;;;;;;0.90;0.90;;;;;;;;;;5072593;28;20052;-26
2022/03/30 12:41:23;;;;;;;1.90;1.10;;;;;;;;;;5072729;28;20055;-26
2022/03/30 12:43:57;;;;;;;1.80;1.13;;;;;;;;;;5073033;28;20044;-27
2022/03/30 12:46:23;;;;;;;1.90;1.52;;;;;;;;;;5072912;28;20094;-27
2022/03/30 12:48:49;;;;;;;1.33;0.85;;;;;;;;;;5072843;28;20482;-26
2022/03/30 12:51:19;;;;;;;1.95;0.80;;;;;;;;;;5072950;28;20032;-26
2022/03/30 12:53:47;;;;;;;1.20;0.80;;;;;;;;;;5072638;28;20032;-28
2022/03/30 12:56:15;;;;;;;1.58;0.80;;;;;;;;;;5071038;28;20036;-27
2022/03/30 12:58:51;;;;;;;3.53;1.45;;;;;;;;;;5071971;28;20053;-26
2022/03/30 13:01:33;;;;;;;1.92;1.10;;;;;;;;;;5072137;28;20123;-27
2022/03/30 13:03:59;;;;;;;1.50;0.90;;;;;;;;;;5072539;28;20048;-25
2022/03/30 13:06:26;;;;;;;3.00;1.02;;;;;;;;;;5072544;28;20435;-27
2022/03/30 13:09:07;;;;;;;1.35;1.02;;;;;;;;;;5072576;28;20048;-26
2022/03/30 13:11:39;;;;;;;2.25;1.02;;;;;;;;;;5072613;28;20394;-26
2022/03/30 13:14:10;;;;;;;3.85;1.25;;;;;;;;;;5072142;28;20093;-27
2022/03/30 13:16:37;;;;;;;1.52;1.00;;;;;;;;;;5072995;28;20048;-27
2022/03/30 13:19:04;;;;;;;2.92;1.30;;;;;;;;;;5072845;28;20051;-27
2022/03/30 13:21:37;;;;;;;1.83;1.00;;;;;;;;;;5072728;28;20387;-27
2022/03/30 13:24:18;;;;;;;3.67;1.05;;;;;;;;;;5071461;28;20137;-27
2022/03/30 13:26:47;;;;;;;2.15;1.00;;;;;;;;;;5072001;28;20079;-27
2022/03/30 13:29:14;;;;;;;1.67;0.85;;;;;;;;;;5071905;28;20040;-28
2022/03/30 13:31:46;;;;;;;2.88;1.00;;;;;;;;;;5071694;28;20036;-30
2022/03/30 13:34:12;;;;;;;1.45;1.08;;;;;;;;;;5054111;28;20044;-25
2022/03/30 13:36:38;;;;;;;2.97;1.20;;;;;;;;;;5071882;28;20041;-27
2022/03/30 13:39:06;;;;;;;1.95;1.00;;;;;;;;;;5071592;28;20051;-26
2022/03/30 13:41:32;;;;;;;1.52;1.00;;;;;;;;;;5071905;28;20036;-26
2022/03/30 13:43:58;;;;;;;1.88;0.90;;;;;;;;;;5071694;28;20137;-26
2022/03/30 13:46:24;;;;;;;3.47;1.10;;;;;;;;;;5071743;28;20095;-28
2022/03/30 13:48:50;;;;;;;2.70;1.30;;;;;;;;;;5071338;28;20116;-26
2022/03/30 13:51:17;;;;;;;1.83;1.15;;;;;;;;;;5071942;28;20052;-27
2022/03/30 13:53:43;;;;;;;2.20;1.10;;;;;;;;;;5072534;28;20379;-27
2022/03/30 13:56:10;;;;;;;2.15;1.23;;;;;;;;;;5072126;28;20117;-27
2022/03/30 13:58:37;;;;;;;2.33;1.10;;;;;;;;;;5071978;28;20131;-27
2022/03/30 14:01:05;;;;;;;2.67;1.33;;;;;;;;;;5071954;28;20048;-26
2022/03/30 14:03:32;;;;;;;3.72;1.30;;;;;;;;;;5072005;28;20041;-26
2022/03/30 14:05:58;;;;;;;0.93;0.90;;;;;;;;;;5071906;28;20066;-26
2022/03/30 14:08:24;;;;;;;2.33;1.23;;;;;;;;;;5071704;28;20040;-25
2022/03/30 14:10:52;;;;;;;1.60;1.25;;;;;;;;;;5071962;28;20039;-28
2022/03/30 14:13:19;;;;;;;1.95;1.10;;;;;;;;;;5072059;28;20363;-25
2022/03/30 14:15:45;;;;;;;2.38;1.30;;;;;;;;;;5072458;28;20529;-27
2022/03/30 14:18:11;;;;;;;3.42;1.33;;;;;;;;;;5071991;28;20041;-30
2022/03/30 14:20:38;;;;;;;4.00;1.35;;;;;;;;;;5071534;28;20041;-31
2022/03/30 14:23:04;;;;;;;4.53;1.75;;;;;;;;;;5071254;28;20071;-30
2022/03/30 14:25:34;;;;;;;3.63;1.42;;;;;;;;;;5071447;28;20045;-29
2022/03/30 14:28:04;;;;;;;2.85;1.40;;;;;;;;;;5071795;28;20037;-31
2022/03/30 14:30:31;;;;;;;2.55;1.73;;;;;;;;;;5071677;28;20486;-29
2022/03/30 14:32:58;;;;;;;4.65;1.30;;;;;;;;;;5070135;28;20052;-29
2022/03/30 14:35:25;;;;;;;2.20;1.10;;;;;;;;;;5071264;28;20086;-28
2022/03/30 14:37:51;;;;;;;2.30;1.30;;;;;;;;;;5071124;28;20044;-27
2022/03/30 14:40:17;;;;;;;3.90;1.20;;;;;;;;;;5071410;28;20068;-26
2022/03/30 14:42:43;;;;;;;2.50;1.17;;;;;;;;;;5053262;28;20041;-26